createdAt,value
2023-02-15T00:00:26.985Z,46.35
2023-02-15T00:02:55.249Z,42.95
2023-02-15T00:05:25.003Z,41.80
2023-02-15T00:07:53.379Z,45.28
2023-02-15T00:10:21.659Z,42.47
2023-02-15T00:12:49.958Z,38.70
2023-02-15T00:15:18.416Z,42.65
2023-02-15T00:17:46.800Z,43.40
2023-02-15T00:20:15.139Z,46.72
2023-02-15T00:22:44.750Z,52.17
2023-02-15T00:25:12.980Z,52.42
2023-02-15T00:27:41.242Z,51.83
2023-02-15T00:30:10.838Z,50.30
2023-02-15T00:32:39.168Z,60.63
2023-02-15T00:35:08.331Z,54.33
2023-02-15T00:37:36.710Z,67.13
2023-02-15T00:40:08.812Z,58.53
2023-02-15T00:42:37.197Z,68.82
2023-02-15T00:45:06.176Z,53.60
2023-02-15T00:47:34.589Z,57.75
2023-02-15T00:50:04.112Z,61.08
2023-02-15T00:52:32.383Z,62.30
2023-02-15T00:55:00.643Z,67.15
2023-02-15T00:57:30.292Z,68.15
2023-02-15T00:59:58.623Z,67.50
2023-02-15T01:02:26.883Z,67.25
2023-02-15T01:04:55.254Z,65.47
2023-02-15T01:07:24.558Z,66.38
2023-02-15T01:09:54.386Z,63.70
2023-02-15T01:12:22.676Z,64.20
2023-02-15T01:14:52.276Z,65.85
2023-02-15T01:17:21.554Z,66.03
2023-02-15T01:19:49.780Z,63.55
2023-02-15T01:22:18.249Z,62.08
2023-02-15T01:24:46.778Z,63.85
2023-02-15T01:27:15.078Z,63.28
2023-02-15T01:29:43.330Z,61.63
2023-02-15T01:32:13.059Z,61.38
2023-02-15T01:34:44.387Z,64.47
2023-02-15T01:37:12.700Z,63.17
2023-02-15T01:39:40.979Z,62.97
2023-02-15T01:42:12.652Z,61.20
2023-02-15T01:45:01.116Z,62.28
2023-02-15T01:47:39.297Z,64.47
2023-02-15T01:50:14.947Z,64.80
2023-02-15T01:52:51.259Z,64.72
2023-02-15T01:55:20.385Z,64.15
2023-02-15T01:57:49.014Z,62.08
2023-02-15T02:00:18.754Z,62.88
2023-02-15T02:02:56.202Z,56.42
2023-02-15T02:05:27.816Z,61.15
2023-02-15T02:08:00.441Z,56.53
2023-02-15T02:10:29.269Z,56.75
2023-02-15T02:13:02.443Z,58.50
2023-02-15T02:15:45.597Z,56.40
2023-02-15T02:18:29.399Z,56.53
2023-02-15T02:21:42.978Z,55.03
2023-02-15T02:25:00.752Z,56.30
2023-02-15T02:27:38.587Z,55.83
2023-02-15T02:30:53.310Z,56.72
2023-02-15T02:33:57.486Z,57.83
2023-02-15T02:36:37.200Z,57.53
2023-02-15T02:39:24.630Z,59.97
2023-02-15T02:42:03.471Z,59.88
2023-02-15T02:44:37.479Z,61.47
2023-02-15T02:47:13.861Z,60.67
2023-02-15T02:49:45.188Z,62.45
2023-02-15T02:52:40.829Z,61.45
2023-02-15T02:55:16.379Z,60.35
2023-02-15T02:57:54.732Z,60.00
2023-02-15T03:00:26.430Z,59.63
2023-02-15T03:03:00.433Z,56.30
2023-02-15T03:05:32.021Z,49.08
2023-02-15T03:08:06.906Z,47.60
2023-02-15T03:10:37.932Z,51.45
2023-02-15T03:13:07.403Z,48.65
2023-02-15T03:15:56.754Z,48.90
2023-02-15T03:18:29.794Z,46.28
2023-02-15T03:21:02.225Z,47.25
2023-02-15T03:23:31.287Z,47.85
2023-02-15T03:26:05.533Z,51.00
2023-02-15T03:28:42.008Z,49.17
2023-02-15T03:31:12.568Z,52.13
2023-02-15T03:36:22.664Z,56.20
2023-02-15T03:39:01.572Z,58.78
2023-02-15T03:41:36.820Z,53.17
2023-02-15T03:44:10.362Z,53.50
2023-02-15T03:46:47.540Z,52.33
2023-02-15T03:49:23.479Z,58.90
2023-02-15T03:51:57.764Z,60.75
2023-02-15T03:54:48.001Z,58.75
2023-02-15T03:57:37.870Z,61.58
2023-02-15T04:00:31.840Z,60.10
2023-02-15T04:03:23.367Z,60.80
2023-02-15T04:05:52.033Z,60.55
2023-02-15T04:08:41.840Z,59.85
2023-02-15T04:11:09.227Z,60.53
2023-02-15T04:13:37.624Z,59.15
2023-02-15T04:16:06.384Z,59.40
2023-02-15T04:18:56.576Z,58.47
2023-02-15T04:21:44.598Z,54.25
2023-02-15T04:24:33.374Z,52.33
2023-02-15T04:27:03.353Z,53.97
2023-02-15T04:29:32.391Z,54.03
2023-02-15T04:32:02.453Z,55.25
2023-02-15T04:34:30.905Z,56.47
2023-02-15T04:36:59.330Z,57.70
2023-02-15T04:39:29.165Z,59.90
2023-02-15T04:41:57.623Z,57.28
2023-02-15T04:44:26.103Z,57.45
2023-02-15T04:46:54.592Z,56.63
2023-02-15T04:49:23.019Z,56.67
2023-02-15T04:51:51.428Z,54.90
2023-02-15T04:54:19.845Z,59.58
2023-02-15T04:56:49.859Z,58.05
2023-02-15T04:59:18.379Z,59.30
2023-02-15T05:01:46.931Z,59.30
2023-02-15T05:04:15.477Z,56.90
2023-02-15T05:06:44.023Z,59.25
2023-02-15T05:09:13.465Z,60.15
2023-02-15T05:11:44.612Z,60.70
2023-02-15T05:14:14.762Z,60.80
2023-02-15T05:16:43.887Z,62.70
2023-02-15T05:19:12.802Z,65.57
2023-02-15T05:21:41.360Z,63.70
2023-02-15T05:24:23.721Z,62.72
2023-02-15T05:27:09.724Z,63.20
2023-02-15T05:29:39.549Z,65.45
2023-02-15T05:32:08.277Z,62.58
2023-02-15T05:34:36.795Z,60.60
2023-02-15T05:37:05.172Z,61.72
2023-02-15T05:39:36.621Z,60.05
2023-02-15T05:42:05.288Z,61.38
2023-02-15T05:44:33.700Z,60.75
2023-02-15T05:47:04.117Z,57.78
2023-02-15T05:49:32.854Z,59.67
2023-02-15T05:52:01.186Z,57.13
2023-02-15T05:54:30.500Z,58.67
2023-02-15T05:56:58.881Z,59.78
2023-02-15T05:59:27.607Z,59.53
2023-02-15T06:01:56.199Z,58.08
2023-02-15T06:04:26.154Z,60.08
2023-02-15T06:06:54.594Z,59.50
2023-02-15T06:09:23.014Z,63.15
2023-02-15T06:11:51.651Z,60.72
2023-02-15T06:14:20.131Z,64.38
2023-02-15T06:16:48.902Z,64.38
2023-02-15T06:19:17.988Z,63.45
2023-02-15T06:21:47.829Z,64.65
2023-02-15T06:24:16.357Z,61.42
2023-02-15T06:26:44.863Z,62.53
2023-02-15T06:29:14.873Z,65.32
2023-02-15T06:31:43.415Z,65.80
2023-02-15T06:34:11.965Z,66.63
2023-02-15T06:36:40.485Z,65.43
2023-02-15T06:39:10.932Z,66.07
2023-02-15T06:41:39.442Z,65.90
2023-02-15T06:44:08.058Z,63.38
2023-02-15T06:46:36.653Z,66.60
2023-02-15T06:49:05.304Z,63.13
2023-02-15T06:51:34.984Z,64.32
2023-02-15T06:54:03.532Z,59.30
2023-02-15T06:56:33.882Z,63.92
2023-02-15T06:59:02.437Z,62.22
2023-02-15T07:01:30.958Z,59.10
2023-02-15T07:03:59.347Z,65.10
2023-02-15T07:06:27.752Z,63.88
2023-02-15T07:08:56.407Z,63.88
2023-02-15T07:11:42.582Z,63.65
2023-02-15T07:14:12.506Z,64.30
2023-02-15T07:16:41.151Z,64.22
2023-02-15T07:19:09.664Z,63.75
2023-02-15T07:21:38.769Z,63.75
2023-02-15T07:24:08.203Z,64.80
2023-02-15T07:26:36.606Z,64.93
2023-02-15T07:29:05.439Z,63.50
2023-02-15T07:31:36.467Z,66.30
2023-02-15T07:34:04.955Z,61.38
2023-02-15T07:36:33.317Z,60.92
2023-02-15T07:39:01.739Z,62.88
2023-02-15T07:41:30.329Z,63.35
2023-02-15T07:43:58.709Z,62.17
2023-02-15T07:46:27.191Z,62.08
2023-02-15T07:48:57.377Z,62.20
2023-02-15T07:51:25.880Z,61.95
2023-02-15T07:53:54.454Z,62.95
2023-02-15T07:56:22.890Z,62.10
2023-02-15T07:58:54.264Z,61.90
2023-02-15T08:01:26.010Z,63.13
2023-02-15T08:03:56.679Z,64.45
2023-02-15T08:06:28.356Z,61.72
2023-02-15T08:08:57.139Z,63.90
2023-02-15T08:11:29.946Z,60.47
2023-02-15T08:14:01.301Z,60.97
2023-02-15T08:16:34.278Z,61.35
2023-02-15T08:19:08.895Z,62.42
2023-02-15T08:21:42.748Z,63.10
2023-02-15T08:24:13.621Z,62.38
2023-02-15T08:26:43.829Z,59.60
2023-02-15T08:29:13.073Z,60.10
2023-02-15T08:31:42.770Z,58.20
2023-02-15T08:34:15.488Z,59.30
2023-02-15T08:36:46.131Z,59.17
2023-02-15T08:41:47.138Z,59.75
2023-02-15T08:44:18.448Z,57.72
2023-02-15T08:46:49.296Z,57.85
2023-02-15T08:49:22.856Z,55.92
2023-02-15T08:51:52.294Z,59.08
2023-02-15T08:54:22.912Z,56.53
2023-02-15T08:59:22.903Z,55.95
2023-02-15T09:01:53.564Z,54.22
2023-02-15T09:06:52.620Z,53.83
2023-02-15T09:09:22.025Z,51.83
2023-02-15T09:11:57.763Z,52.17
2023-02-15T09:14:28.539Z,51.88
2023-02-15T09:16:57.308Z,51.10
2023-02-15T09:19:27.291Z,51.60
2023-02-15T09:21:56.080Z,51.97
2023-02-15T09:24:24.708Z,52.08
2023-02-15T09:26:56.231Z,51.78
2023-02-15T09:29:25.302Z,53.08
2023-02-15T09:31:54.670Z,54.63
2023-02-15T09:34:24.703Z,56.80
2023-02-15T09:36:54.700Z,55.35
2023-02-15T09:39:25.760Z,57.97
2023-02-15T09:42:34.240Z,54.83
2023-02-15T09:45:29.912Z,55.35
2023-02-15T09:48:42.992Z,58.08
2023-02-15T09:51:45.320Z,57.70
2023-02-15T09:54:38.553Z,57.15
2023-02-15T09:57:13.776Z,55.60
2023-02-15T09:59:53.239Z,52.97
2023-02-15T10:02:40.557Z,54.80
2023-02-15T10:05:24.250Z,54.83
2023-02-15T10:08:25.011Z,52.72
2023-02-15T10:11:25.556Z,51.00
2023-02-15T10:14:11.763Z,53.75
2023-02-15T10:16:52.932Z,52.35
2023-02-15T10:19:35.619Z,54.38
2023-02-15T10:22:20.076Z,55.88
2023-02-15T10:25:22.516Z,52.35
2023-02-15T10:27:52.680Z,52.50
2023-02-15T10:30:32.665Z,53.13
2023-02-15T10:33:05.509Z,54.20
2023-02-15T10:35:47.505Z,52.22
2023-02-15T10:38:27.002Z,51.92
2023-02-15T10:41:12.288Z,52.30
2023-02-15T10:44:09.637Z,52.78
2023-02-15T10:46:59.354Z,51.72
2023-02-15T10:50:17.972Z,51.35
2023-02-15T10:53:05.904Z,51.85
2023-02-15T10:55:52.352Z,50.15
2023-02-15T10:58:37.755Z,48.05
2023-02-15T11:01:16.037Z,50.38
2023-02-15T11:04:12.510Z,51.80
2023-02-15T11:06:49.313Z,49.42
2023-02-15T11:09:21.755Z,49.00
2023-02-15T11:11:56.674Z,49.92
2023-02-15T11:14:38.017Z,50.97
2023-02-15T11:17:12.879Z,50.42
2023-02-15T11:19:48.690Z,50.75
2023-02-15T11:22:18.176Z,49.90
2023-02-15T11:24:49.485Z,49.17
2023-02-15T11:27:24.449Z,50.10
2023-02-15T11:30:02.232Z,49.40
2023-02-15T11:32:36.137Z,49.83
2023-02-15T11:35:13.736Z,50.50
2023-02-15T11:37:48.235Z,49.97
2023-02-15T11:40:25.796Z,49.92
2023-02-15T11:43:02.179Z,47.72
2023-02-15T11:45:32.784Z,49.33
2023-02-15T11:48:04.187Z,47.85
2023-02-15T11:50:35.255Z,49.38
2023-02-15T11:53:07.399Z,48.55
2023-02-15T11:55:36.112Z,49.20
2023-02-15T11:58:14.041Z,48.25
2023-02-15T12:00:45.089Z,48.53
2023-02-15T12:03:24.391Z,47.80
2023-02-15T12:06:00.732Z,47.65
2023-02-15T12:08:40.394Z,47.75
2023-02-15T12:11:14.131Z,47.30
2023-02-15T12:13:58.334Z,45.65
2023-02-15T12:16:28.295Z,47.35
2023-02-15T12:19:01.836Z,49.35
2023-02-15T12:21:33.852Z,48.13
2023-02-15T12:24:12.632Z,48.10
2023-02-15T12:26:41.212Z,48.75
2023-02-15T12:29:18.314Z,47.22
2023-02-15T12:31:50.084Z,49.03
2023-02-15T12:34:27.536Z,47.28
2023-02-15T12:36:59.905Z,50.15
2023-02-15T12:39:30.558Z,46.20
2023-02-15T12:44:33.983Z,45.67
2023-02-15T12:47:05.847Z,45.33
2023-02-15T12:49:37.903Z,45.47
2023-02-15T12:52:13.259Z,45.72
2023-02-15T12:54:44.032Z,48.78
2023-02-15T12:59:52.988Z,45.97
2023-02-15T13:05:19.537Z,46.15
2023-02-15T13:07:51.456Z,48.15
2023-02-15T13:10:31.223Z,47.20
2023-02-15T13:13:00.462Z,48.78
2023-02-15T13:15:38.037Z,48.83
2023-02-15T13:18:13.342Z,50.30
2023-02-15T13:20:46.196Z,48.78
2023-02-15T13:23:29.242Z,49.10
2023-02-15T13:26:01.213Z,48.70
2023-02-15T13:28:40.878Z,50.28
2023-02-15T13:31:16.476Z,50.80
2023-02-15T13:33:48.898Z,49.88
2023-02-15T13:36:26.269Z,49.42
2023-02-15T13:39:11.760Z,50.33
2023-02-15T13:41:56.689Z,50.08
2023-02-15T13:45:00.106Z,49.03
2023-02-15T13:47:36.249Z,48.08
2023-02-15T13:50:33.888Z,49.47
2023-02-15T13:53:26.895Z,49.67
2023-02-15T13:56:02.001Z,48.97
2023-02-15T13:58:55.245Z,49.58
2023-02-15T14:01:36.986Z,48.83
2023-02-15T14:04:46.571Z,50.88
2023-02-15T14:07:46.758Z,49.13
2023-02-15T14:10:34.557Z,49.20
2023-02-15T14:13:49.601Z,49.08
2023-02-15T14:16:25.261Z,47.33
2023-02-15T14:19:03.786Z,48.53
2023-02-15T14:21:37.819Z,45.63
2023-02-15T14:24:30.522Z,47.05
2023-02-15T14:27:12.998Z,46.35
2023-02-15T14:29:53.966Z,48.22
2023-02-15T14:32:30.919Z,46.10
2023-02-15T14:35:01.962Z,47.60
2023-02-15T14:37:49.083Z,47.28
2023-02-15T14:40:50.277Z,49.42
2023-02-15T14:43:32.389Z,47.55
2023-02-15T14:46:10.612Z,48.80
2023-02-15T14:48:44.227Z,47.15
2023-02-15T14:51:28.991Z,49.53
2023-02-15T14:53:57.527Z,47.85
2023-02-15T14:56:28.718Z,49.55
2023-02-15T14:59:22.965Z,47.95
2023-02-15T15:01:59.841Z,47.47
2023-02-15T15:04:35.444Z,48.38
2023-02-15T15:07:11.930Z,48.60
2023-02-15T15:09:43.235Z,48.05
2023-02-15T15:12:41.148Z,49.95
2023-02-15T15:15:16.035Z,50.75
2023-02-15T15:18:01.068Z,51.03
2023-02-15T15:20:46.673Z,50.30
2023-02-15T15:23:46.980Z,51.53
2023-02-15T15:26:29.667Z,49.30
2023-02-15T15:29:01.877Z,51.10
2023-02-15T15:31:48.483Z,51.95
2023-02-15T15:34:52.103Z,48.95
2023-02-15T15:37:59.059Z,49.53
2023-02-15T15:40:50.966Z,48.88
2023-02-15T15:44:30.731Z,50.05
2023-02-15T15:47:22.379Z,47.90
2023-02-15T15:49:50.922Z,46.85
2023-02-15T15:52:22.788Z,50.00
2023-02-15T15:54:58.583Z,50.30
2023-02-15T15:57:32.010Z,50.40
2023-02-15T16:00:00.973Z,49.08
2023-02-15T16:02:31.016Z,49.58
2023-02-15T16:05:10.175Z,50.05
2023-02-15T16:07:38.878Z,50.83
2023-02-15T16:10:22.456Z,49.63
2023-02-15T16:12:52.473Z,49.95
2023-02-15T16:15:26.254Z,46.83
2023-02-15T16:17:58.516Z,48.05
2023-02-15T16:20:29.528Z,49.97
2023-02-15T16:23:22.621Z,48.65
2023-02-15T16:26:03.612Z,48.97
2023-02-15T16:28:32.323Z,48.05
2023-02-15T16:31:12.824Z,48.30
2023-02-15T16:33:46.047Z,47.67
2023-02-15T16:36:23.138Z,47.08
2023-02-15T16:39:20.060Z,47.20
2023-02-15T16:41:50.486Z,46.63
2023-02-15T16:44:21.692Z,47.83
2023-02-15T16:46:54.926Z,46.58
2023-02-15T16:49:28.283Z,46.15
2023-02-15T16:52:01.191Z,46.83
2023-02-15T16:54:32.205Z,47.72
2023-02-15T16:57:01.134Z,47.75
2023-02-15T16:59:37.134Z,48.40
2023-02-15T17:02:08.131Z,48.40
2023-02-15T17:04:40.181Z,49.10
2023-02-15T17:07:18.572Z,46.45
2023-02-15T17:09:55.446Z,47.63
2023-02-15T17:12:47.147Z,47.17
2023-02-15T17:15:31.179Z,46.65
2023-02-15T17:18:05.679Z,46.67
2023-02-15T17:20:37.445Z,45.38
2023-02-15T17:23:06.681Z,46.35
2023-02-15T17:25:41.058Z,45.15
2023-02-15T17:28:19.900Z,44.78
2023-02-15T17:30:49.519Z,46.20
2023-02-15T17:33:30.086Z,44.88
2023-02-15T17:36:10.764Z,42.38
2023-02-15T17:38:40.228Z,43.90
2023-02-15T17:41:09.846Z,42.85
2023-02-15T17:43:38.556Z,42.80
2023-02-15T17:46:07.168Z,42.25
2023-02-15T17:48:38.760Z,44.45
2023-02-15T17:51:14.609Z,42.22
2023-02-15T17:54:04.631Z,42.88
2023-02-15T17:56:32.183Z,41.38
2023-02-15T17:59:00.777Z,42.65
2023-02-15T18:01:47.048Z,41.13
2023-02-15T18:04:34.641Z,40.95
2023-02-15T18:07:22.317Z,39.40
2023-02-15T18:10:08.161Z,39.72
2023-02-15T18:12:42.062Z,38.95
2023-02-15T18:15:13.141Z,39.40
2023-02-15T18:17:44.947Z,39.25
2023-02-15T18:20:21.483Z,39.67
2023-02-15T18:22:52.802Z,39.67
2023-02-15T18:25:25.771Z,39.53
2023-02-15T18:27:55.517Z,38.70
2023-02-15T18:30:27.335Z,39.00
2023-02-15T18:32:59.803Z,40.35
2023-02-15T18:35:32.538Z,38.92
2023-02-15T18:38:03.171Z,39.65
2023-02-15T18:40:32.899Z,41.53
2023-02-15T18:43:01.480Z,41.80
2023-02-15T18:45:33.504Z,39.45
2023-02-15T18:48:02.416Z,38.58
2023-02-15T18:50:35.570Z,39.55
2023-02-15T18:53:08.134Z,40.58
2023-02-15T18:55:36.681Z,40.40
2023-02-15T18:58:05.363Z,39.35
2023-02-15T19:00:37.892Z,40.47
2023-02-15T19:03:06.586Z,40.58
2023-02-15T19:05:35.427Z,40.75
2023-02-15T19:08:06.087Z,41.38
2023-02-15T19:13:03.447Z,40.65
2023-02-15T19:15:32.278Z,40.67
2023-02-15T19:18:00.775Z,40.92
2023-02-15T19:20:33.708Z,40.22
2023-02-15T19:23:04.695Z,41.42
2023-02-15T19:25:38.081Z,44.33
2023-02-15T19:28:17.038Z,43.22
2023-02-15T19:30:45.965Z,44.55
2023-02-15T19:33:18.942Z,44.45
2023-02-15T19:35:52.615Z,44.38
2023-02-15T19:38:26.557Z,45.17
2023-02-15T19:41:04.431Z,45.47
2023-02-15T19:43:33.241Z,44.22
2023-02-15T19:46:02.133Z,46.78
2023-02-15T19:48:30.909Z,45.20
2023-02-15T19:50:59.878Z,45.35
2023-02-15T19:53:30.820Z,46.50
2023-02-15T19:55:59.231Z,46.22
2023-02-15T19:58:27.906Z,44.70
2023-02-15T20:00:56.404Z,44.78
2023-02-15T20:03:24.862Z,44.88
2023-02-15T20:05:53.507Z,46.45
2023-02-15T20:08:23.944Z,45.90
2023-02-15T20:10:54.208Z,46.55
2023-02-15T20:13:23.930Z,45.72
2023-02-15T20:15:53.327Z,45.35
2023-02-15T20:18:22.798Z,45.85
2023-02-15T20:20:53.778Z,46.60
2023-02-15T20:26:02.250Z,44.45
2023-02-15T20:28:33.189Z,46.45
2023-02-15T20:31:02.309Z,46.25
2023-02-15T20:33:31.740Z,45.35
2023-02-15T20:36:01.050Z,45.33
2023-02-15T20:38:32.569Z,48.25
2023-02-15T20:41:21.316Z,48.38
2023-02-15T20:43:49.737Z,48.10
2023-02-15T20:46:18.183Z,47.45
2023-02-15T20:48:47.070Z,46.97
2023-02-15T20:51:19.758Z,46.40
2023-02-15T20:53:49.107Z,47.30
2023-02-15T20:56:23.466Z,47.97
2023-02-15T20:58:55.163Z,46.20
2023-02-15T21:01:23.695Z,48.03
2023-02-15T21:03:52.122Z,48.00
2023-02-15T21:06:20.680Z,46.75
2023-02-15T21:08:49.332Z,49.20
2023-02-15T21:11:21.934Z,48.50
2023-02-15T21:13:51.778Z,49.67
2023-02-15T21:16:20.616Z,48.53
2023-02-15T21:18:49.334Z,50.42
2023-02-15T21:21:24.603Z,49.60
2023-02-15T21:23:54.498Z,49.75
2023-02-15T21:26:25.034Z,49.08
2023-02-15T21:31:24.833Z,52.15
2023-02-15T21:33:53.663Z,49.60
2023-02-15T21:36:24.912Z,51.30
2023-02-15T21:38:54.107Z,52.60
2023-02-15T21:41:43.467Z,52.75
2023-02-15T21:44:37.753Z,51.65
2023-02-15T21:47:24.606Z,50.92
2023-02-15T21:49:53.174Z,52.05
2023-02-15T21:52:24.041Z,53.00
2023-02-15T21:54:52.586Z,53.40
2023-02-15T21:57:22.612Z,53.00
2023-02-15T21:59:51.293Z,52.75
2023-02-15T22:02:29.313Z,53.20
2023-02-15T22:04:59.515Z,51.35
2023-02-15T22:07:27.919Z,53.13
2023-02-15T22:09:56.332Z,52.45
2023-02-15T22:12:26.276Z,54.15
2023-02-15T22:14:55.517Z,53.58
2023-02-15T22:17:28.198Z,52.97
2023-02-15T22:19:57.775Z,55.03
2023-02-15T22:22:26.194Z,55.85
2023-02-15T22:24:54.647Z,53.90
2023-02-15T22:27:27.428Z,53.83
2023-02-15T22:29:56.891Z,55.03
2023-02-15T22:32:27.928Z,54.60
2023-02-15T22:34:57.047Z,55.22
2023-02-15T22:37:25.354Z,55.58
2023-02-15T22:39:54.118Z,54.42
2023-02-15T22:42:28.677Z,54.85
2023-02-15T22:44:58.548Z,54.47
2023-02-15T22:47:32.171Z,54.40
2023-02-15T22:50:01.024Z,54.63
2023-02-15T22:52:29.524Z,55.72
2023-02-15T22:54:57.949Z,55.83
2023-02-15T22:57:31.910Z,55.00
2023-02-15T23:00:01.310Z,57.03
2023-02-15T23:02:30.118Z,54.97
2023-02-15T23:04:58.595Z,58.10
2023-02-15T23:07:27.081Z,56.83
2023-02-15T23:09:55.466Z,57.33
2023-02-15T23:12:28.688Z,56.63
2023-02-15T23:14:58.409Z,56.28
2023-02-15T23:17:27.085Z,58.00
2023-02-15T23:19:55.517Z,57.90
2023-02-15T23:22:24.238Z,58.13
2023-02-15T23:24:54.523Z,56.90
2023-02-15T23:27:52.136Z,57.35
2023-02-15T23:30:22.232Z,58.55
2023-02-15T23:32:57.589Z,60.50
2023-02-15T23:35:26.130Z,58.90
2023-02-15T23:37:54.533Z,57.22
2023-02-15T23:40:40.987Z,59.75
2023-02-15T23:43:20.676Z,59.33
2023-02-15T23:45:50.650Z,58.85
2023-02-15T23:48:31.795Z,60.22
2023-02-15T23:51:01.264Z,59.63
2023-02-15T23:53:29.987Z,59.25
2023-02-15T23:55:59.180Z,60.40
2023-02-15T23:58:36.576Z,58.90
